sensor_id;sensor_type;location;lat;lon;timestamp;P1;durP1;ratioP1;P2;durP2;ratioP2
1585;SDS011;786;48.718;9.514;2024-02-26T00:01:00;3.03;;;1.92;;
1585;SDS011;786;48.718;9.514;2024-02-26T00:03:27;2.85;;;2.28;;
1585;SDS011;786;48.718;9.514;2024-02-26T00:05:53;2.65;;;2.08;;
1585;SDS011;786;48.718;9.514;2024-02-26T00:08:21;3.05;;;2.22;;
1585;SDS011;786;48.718;9.514;2024-02-26T00:10:47;3.50;;;3.08;;
1585;SDS011;786;48.718;9.514;2024-02-26T00:13:14;2.50;;;2.28;;
1585;SDS011;786;48.718;9.514;2024-02-26T00:15:40;2.90;;;2.10;;
1585;SDS011;786;48.718;9.514;2024-02-26T00:18:08;3.08;;;2.30;;
1585;SDS011;786;48.718;9.514;2024-02-26T00:20:34;2.78;;;2.03;;
1585;SDS011;786;48.718;9.514;2024-02-26T00:23:01;3.38;;;2.30;;
1585;SDS011;786;48.718;9.514;2024-02-26T00:25:27;2.10;;;1.90;;
1585;SDS011;786;48.718;9.514;2024-02-26T00:27:53;3.53;;;2.50;;
1585;SDS011;786;48.718;9.514;2024-02-26T00:30:20;3.22;;;2.20;;
1585;SDS011;786;48.718;9.514;2024-02-26T00:32:47;2.95;;;2.10;;
1585;SDS011;786;48.718;9.514;2024-02-26T00:35:15;2.78;;;2.42;;
1585;SDS011;786;48.718;9.514;2024-02-26T00:37:45;2.63;;;2.42;;
1585;SDS011;786;48.718;9.514;2024-02-26T00:40:12;2.80;;;2.00;;
1585;SDS011;786;48.718;9.514;2024-02-26T00:42:38;3.65;;;2.42;;
1585;SDS011;786;48.718;9.514;2024-02-26T00:45:10;4.22;;;2.47;;
1585;SDS011;786;48.718;9.514;2024-02-26T00:47:36;2.90;;;2.20;;
1585;SDS011;786;48.718;9.514;2024-02-26T00:50:03;2.47;;;2.00;;
1585;SDS011;786;48.718;9.514;2024-02-26T00:52:31;2.72;;;2.10;;
1585;SDS011;786;48.718;9.514;2024-02-26T00:54:58;3.67;;;2.30;;
1585;SDS011;786;48.718;9.514;2024-02-26T00:57:24;3.13;;;2.60;;
1585;SDS011;786;48.718;9.514;2024-02-26T00:59:51;3.72;;;2.33;;
1585;SDS011;786;48.718;9.514;2024-02-26T01:02:17;3.50;;;2.55;;
1585;SDS011;786;48.718;9.514;2024-02-26T01:04:43;3.17;;;2.30;;
1585;SDS011;786;48.718;9.514;2024-02-26T01:07:10;2.70;;;2.03;;
1585;SDS011;786;48.718;9.514;2024-02-26T01:09:38;2.45;;;2.25;;
1585;SDS011;786;48.718;9.514;2024-02-26T01:12:04;2.28;;;1.80;;
1585;SDS011;786;48.718;9.514;2024-02-26T01:14:31;2.28;;;2.00;;
1585;SDS011;786;48.718;9.514;2024-02-26T01:16:58;3.45;;;1.92;;
1585;SDS011;786;48.718;9.514;2024-02-26T01:19:24;2.83;;;2.30;;
1585;SDS011;786;48.718;9.514;2024-02-26T01:21:50;3.40;;;2.33;;
1585;SDS011;786;48.718;9.514;2024-02-26T01:24:17;2.63;;;2.08;;
1585;SDS011;786;48.718;9.514;2024-02-26T01:26:44;3.72;;;2.25;;
1585;SDS011;786;48.718;9.514;2024-02-26T01:29:11;2.72;;;1.98;;
1585;SDS011;786;48.718;9.514;2024-02-26T01:31:37;2.80;;;1.70;;
1585;SDS011;786;48.718;9.514;2024-02-26T01:34:04;3.92;;;2.30;;
1585;SDS011;786;48.718;9.514;2024-02-26T01:36:30;3.45;;;2.45;;
1585;SDS011;786;48.718;9.514;2024-02-26T01:38:57;3.20;;;2.35;;
1585;SDS011;786;48.718;9.514;2024-02-26T01:41:23;2.40;;;1.92;;
1585;SDS011;786;48.718;9.514;2024-02-26T01:43:51;2.67;;;1.90;;
1585;SDS011;786;48.718;9.514;2024-02-26T01:46:17;2.83;;;1.80;;
1585;SDS011;786;48.718;9.514;2024-02-26T01:48:44;5.90;;;2.90;;
1585;SDS011;786;48.718;9.514;2024-02-26T01:51:12;2.72;;;2.53;;
1585;SDS011;786;48.718;9.514;2024-02-26T01:53:39;3.97;;;2.83;;
1585;SDS011;786;48.718;9.514;2024-02-26T01:56:06;2.42;;;2.08;;
1585;SDS011;786;48.718;9.514;2024-02-26T01:58:32;2.88;;;2.55;;
1585;SDS011;786;48.718;9.514;2024-02-26T02:01:01;3.25;;;2.30;;
1585;SDS011;786;48.718;9.514;2024-02-26T02:03:28;3.28;;;2.78;;
1585;SDS011;786;48.718;9.514;2024-02-26T02:05:54;3.72;;;2.63;;
1585;SDS011;786;48.718;9.514;2024-02-26T02:08:21;2.97;;;2.45;;
1585;SDS011;786;48.718;9.514;2024-02-26T02:10:48;4.05;;;2.63;;
1585;SDS011;786;48.718;9.514;2024-02-26T02:13:14;3.10;;;2.50;;
1585;SDS011;786;48.718;9.514;2024-02-26T02:15:40;3.63;;;2.80;;
1585;SDS011;786;48.718;9.514;2024-02-26T02:18:08;3.45;;;2.47;;
1585;SDS011;786;48.718;9.514;2024-02-26T02:20:36;3.92;;;2.92;;
1585;SDS011;786;48.718;9.514;2024-02-26T02:23:03;3.20;;;2.58;;
1585;SDS011;786;48.718;9.514;2024-02-26T02:25:29;4.22;;;2.33;;
1585;SDS011;786;48.718;9.514;2024-02-26T02:27:56;2.97;;;2.47;;
1585;SDS011;786;48.718;9.514;2024-02-26T02:30:22;3.75;;;2.70;;
1585;SDS011;786;48.718;9.514;2024-02-26T02:32:50;3.92;;;2.75;;
1585;SDS011;786;48.718;9.514;2024-02-26T02:35:16;4.00;;;2.30;;
1585;SDS011;786;48.718;9.514;2024-02-26T02:37:44;3.20;;;2.90;;
1585;SDS011;786;48.718;9.514;2024-02-26T02:40:11;3.45;;;2.47;;
1585;SDS011;786;48.718;9.514;2024-02-26T02:42:37;4.15;;;3.17;;
1585;SDS011;786;48.718;9.514;2024-02-26T02:45:04;2.78;;;2.22;;
1585;SDS011;786;48.718;9.514;2024-02-26T02:47:31;3.13;;;2.83;;
1585;SDS011;786;48.718;9.514;2024-02-26T02:49:57;3.72;;;2.53;;
1585;SDS011;786;48.718;9.514;2024-02-26T02:52:23;3.53;;;2.63;;
1585;SDS011;786;48.718;9.514;2024-02-26T02:54:51;3.45;;;2.75;;
1585;SDS011;786;48.718;9.514;2024-02-26T02:57:17;2.90;;;2.60;;
1585;SDS011;786;48.718;9.514;2024-02-26T02:59:44;2.90;;;2.58;;
1585;SDS011;786;48.718;9.514;2024-02-26T03:02:10;4.95;;;3.30;;
1585;SDS011;786;48.718;9.514;2024-02-26T03:04:36;4.70;;;2.65;;
1585;SDS011;786;48.718;9.514;2024-02-26T03:07:03;3.47;;;2.70;;
1585;SDS011;786;48.718;9.514;2024-02-26T03:09:29;4.00;;;2.80;;
1585;SDS011;786;48.718;9.514;2024-02-26T03:11:57;4.65;;;2.88;;
1585;SDS011;786;48.718;9.514;2024-02-26T03:14:23;3.95;;;2.83;;
1585;SDS011;786;48.718;9.514;2024-02-26T03:16:52;3.53;;;2.65;;
1585;SDS011;786;48.718;9.514;2024-02-26T03:19:19;3.63;;;2.63;;
1585;SDS011;786;48.718;9.514;2024-02-26T03:21:46;4.25;;;2.90;;
1585;SDS011;786;48.718;9.514;2024-02-26T03:24:12;3.53;;;2.63;;
1585;SDS011;786;48.718;9.514;2024-02-26T03:26:39;3.65;;;2.83;;
1585;SDS011;786;48.718;9.514;2024-02-26T03:29:07;2.70;;;2.30;;
1585;SDS011;786;48.718;9.514;2024-02-26T03:31:33;3.30;;;2.35;;
1585;SDS011;786;48.718;9.514;2024-02-26T03:34:00;4.22;;;2.78;;
1585;SDS011;786;48.718;9.514;2024-02-26T03:36:26;3.50;;;2.70;;
1585;SDS011;786;48.718;9.514;2024-02-26T03:38:52;4.60;;;2.83;;
1585;SDS011;786;48.718;9.514;2024-02-26T03:41:19;3.60;;;2.63;;
1585;SDS011;786;48.718;9.514;2024-02-26T03:43:45;3.05;;;2.45;;
1585;SDS011;786;48.718;9.514;2024-02-26T03:46:13;3.88;;;2.53;;
1585;SDS011;786;48.718;9.514;2024-02-26T03:48:39;3.33;;;2.47;;
1585;SDS011;786;48.718;9.514;2024-02-26T03:51:06;3.47;;;2.88;;
1585;SDS011;786;48.718;9.514;2024-02-26T03:53:34;3.80;;;3.15;;
1585;SDS011;786;48.718;9.514;2024-02-26T03:56:02;4.50;;;2.85;;
1585;SDS011;786;48.718;9.514;2024-02-26T03:58:29;2.83;;;2.30;;
1585;SDS011;786;48.718;9.514;2024-02-26T04:00:56;4.05;;;2.63;;
1585;SDS011;786;48.718;9.514;2024-02-26T04:20:14;5.07;;;2.88;;
1585;SDS011;786;48.718;9.514;2024-02-26T04:22:42;4.00;;;2.67;;
1585;SDS011;786;48.718;9.514;2024-02-26T04:25:08;4.88;;;2.47;;
1585;SDS011;786;48.718;9.514;2024-02-26T04:27:35;5.03;;;3.15;;
1585;SDS011;786;48.718;9.514;2024-02-26T04:30:01;2.92;;;2.47;;
1585;SDS011;786;48.718;9.514;2024-02-26T04:32:29;5.50;;;3.05;;
1585;SDS011;786;48.718;9.514;2024-02-26T04:34:55;2.97;;;2.67;;
1585;SDS011;786;48.718;9.514;2024-02-26T04:37:23;3.83;;;2.75;;
1585;SDS011;786;48.718;9.514;2024-02-26T04:39:49;4.35;;;3.80;;
1585;SDS011;786;48.718;9.514;2024-02-26T04:42:15;4.38;;;2.75;;
1585;SDS011;786;48.718;9.514;2024-02-26T04:44:42;3.58;;;3.05;;
1585;SDS011;786;48.718;9.514;2024-02-26T04:47:08;4.90;;;3.05;;
1585;SDS011;786;48.718;9.514;2024-02-26T04:49:34;3.67;;;2.63;;
1585;SDS011;786;48.718;9.514;2024-02-26T04:52:01;4.35;;;3.45;;
1585;SDS011;786;48.718;9.514;2024-02-26T04:54:29;3.35;;;2.78;;
1585;SDS011;786;48.718;9.514;2024-02-26T04:56:55;5.15;;;3.38;;
1585;SDS011;786;48.718;9.514;2024-02-26T04:59:21;3.33;;;2.38;;
1585;SDS011;786;48.718;9.514;2024-02-26T05:01:48;3.25;;;2.85;;
1585;SDS011;786;48.718;9.514;2024-02-26T05:04:16;5.40;;;3.35;;
1585;SDS011;786;48.718;9.514;2024-02-26T05:06:42;4.25;;;3.38;;
1585;SDS011;786;48.718;9.514;2024-02-26T05:09:08;3.70;;;3.08;;
1585;SDS011;786;48.718;9.514;2024-02-26T05:11:36;3.80;;;2.90;;
1585;SDS011;786;48.718;9.514;2024-02-26T05:14:02;3.72;;;3.20;;
1585;SDS011;786;48.718;9.514;2024-02-26T05:16:29;4.28;;;3.50;;
1585;SDS011;786;48.718;9.514;2024-02-26T05:18:56;4.65;;;3.47;;
1585;SDS011;786;48.718;9.514;2024-02-26T05:21:22;4.22;;;3.38;;
1585;SDS011;786;48.718;9.514;2024-02-26T05:23:48;3.50;;;3.20;;
1585;SDS011;786;48.718;9.514;2024-02-26T05:26:19;4.22;;;3.20;;
1585;SDS011;786;48.718;9.514;2024-02-26T05:28:47;4.18;;;3.65;;
1585;SDS011;786;48.718;9.514;2024-02-26T05:31:13;3.90;;;3.30;;
1585;SDS011;786;48.718;9.514;2024-02-26T05:33:39;3.58;;;3.20;;
1585;SDS011;786;48.718;9.514;2024-02-26T05:36:06;3.83;;;3.13;;
1585;SDS011;786;48.718;9.514;2024-02-26T05:38:32;3.30;;;2.70;;
1585;SDS011;786;48.718;9.514;2024-02-26T05:40:59;4.05;;;3.20;;
1585;SDS011;786;48.718;9.514;2024-02-26T05:43:25;4.40;;;2.97;;
1585;SDS011;786;48.718;9.514;2024-02-26T05:45:53;3.75;;;3.45;;
1585;SDS011;786;48.718;9.514;2024-02-26T05:48:19;4.30;;;3.20;;
1585;SDS011;786;48.718;9.514;2024-02-26T05:50:46;3.63;;;2.70;;
1585;SDS011;786;48.718;9.514;2024-02-26T05:53:12;6.55;;;3.80;;
1585;SDS011;786;48.718;9.514;2024-02-26T05:55:39;4.70;;;3.13;;
1585;SDS011;786;48.718;9.514;2024-02-26T05:58:05;4.22;;;3.28;;
1585;SDS011;786;48.718;9.514;2024-02-26T06:00:31;3.35;;;2.72;;
1585;SDS011;786;48.718;9.514;2024-02-26T06:02:59;5.90;;;3.47;;
1585;SDS011;786;48.718;9.514;2024-02-26T06:05:25;5.05;;;3.83;;
1585;SDS011;786;48.718;9.514;2024-02-26T06:07:52;5.55;;;4.53;;
1585;SDS011;786;48.718;9.514;2024-02-26T06:10:18;5.53;;;3.97;;
1585;SDS011;786;48.718;9.514;2024-02-26T06:12:46;6.68;;;5.13;;
1585;SDS011;786;48.718;9.514;2024-02-26T06:15:12;4.60;;;3.60;;
1585;SDS011;786;48.718;9.514;2024-02-26T06:17:39;5.10;;;3.90;;
1585;SDS011;786;48.718;9.514;2024-02-26T06:20:07;6.03;;;4.38;;
1585;SDS011;786;48.718;9.514;2024-02-26T06:22:37;6.18;;;3.63;;
1585;SDS011;786;48.718;9.514;2024-02-26T06:25:04;4.47;;;3.72;;
1585;SDS011;786;48.718;9.514;2024-02-26T06:27:31;4.70;;;3.45;;
1585;SDS011;786;48.718;9.514;2024-02-26T06:29:57;5.28;;;4.07;;
1585;SDS011;786;48.718;9.514;2024-02-26T06:32:24;3.78;;;3.38;;
1585;SDS011;786;48.718;9.514;2024-02-26T06:34:52;5.20;;;4.20;;
1585;SDS011;786;48.718;9.514;2024-02-26T06:37:20;3.80;;;3.20;;
1585;SDS011;786;48.718;9.514;2024-02-26T06:39:46;6.22;;;3.63;;
1585;SDS011;786;48.718;9.514;2024-02-26T06:42:13;3.75;;;3.28;;
1585;SDS011;786;48.718;9.514;2024-02-26T06:44:39;8.05;;;4.10;;
1585;SDS011;786;48.718;9.514;2024-02-26T06:47:06;4.78;;;3.97;;
1585;SDS011;786;48.718;9.514;2024-02-26T06:49:32;4.55;;;3.47;;
1585;SDS011;786;48.718;9.514;2024-02-26T06:51:58;5.72;;;4.63;;
1585;SDS011;786;48.718;9.514;2024-02-26T06:54:26;4.75;;;2.90;;
1585;SDS011;786;48.718;9.514;2024-02-26T06:56:52;4.03;;;3.50;;
1585;SDS011;786;48.718;9.514;2024-02-26T06:59:18;4.80;;;3.75;;
1585;SDS011;786;48.718;9.514;2024-02-26T07:01:45;3.38;;;2.92;;
1585;SDS011;786;48.718;9.514;2024-02-26T07:04:11;4.35;;;3.25;;
1585;SDS011;786;48.718;9.514;2024-02-26T07:06:37;3.38;;;2.63;;
1585;SDS011;786;48.718;9.514;2024-02-26T07:09:04;4.70;;;2.80;;
1585;SDS011;786;48.718;9.514;2024-02-26T07:11:31;4.32;;;3.92;;
1585;SDS011;786;48.718;9.514;2024-02-26T07:13:58;4.10;;;3.50;;
1585;SDS011;786;48.718;9.514;2024-02-26T07:16:25;3.08;;;2.78;;
1585;SDS011;786;48.718;9.514;2024-02-26T07:18:52;4.93;;;3.22;;
1585;SDS011;786;48.718;9.514;2024-02-26T07:21:18;4.07;;;3.17;;
1585;SDS011;786;48.718;9.514;2024-02-26T07:23:45;3.65;;;3.22;;
1585;SDS011;786;48.718;9.514;2024-02-26T07:26:11;3.95;;;3.25;;
1585;SDS011;786;48.718;9.514;2024-02-26T07:28:39;3.92;;;3.10;;
1585;SDS011;786;48.718;9.514;2024-02-26T07:31:05;4.97;;;2.92;;
1585;SDS011;786;48.718;9.514;2024-02-26T07:33:31;3.45;;;2.60;;
1585;SDS011;786;48.718;9.514;2024-02-26T07:35:58;3.75;;;3.35;;
1585;SDS011;786;48.718;9.514;2024-02-26T07:38:25;3.35;;;3.05;;
1585;SDS011;786;48.718;9.514;2024-02-26T07:40:51;4.63;;;3.53;;
1585;SDS011;786;48.718;9.514;2024-02-26T07:43:17;3.33;;;2.90;;
1585;SDS011;786;48.718;9.514;2024-02-26T07:45:45;4.05;;;3.13;;
1585;SDS011;786;48.718;9.514;2024-02-26T07:48:11;3.47;;;2.90;;
1585;SDS011;786;48.718;9.514;2024-02-26T07:50:38;4.38;;;2.72;;
1585;SDS011;786;48.718;9.514;2024-02-26T07:53:05;3.35;;;3.05;;
1585;SDS011;786;48.718;9.514;2024-02-26T07:55:31;3.47;;;3.13;;
1585;SDS011;786;48.718;9.514;2024-02-26T07:57:58;5.68;;;3.58;;
1585;SDS011;786;48.718;9.514;2024-02-26T08:00:24;6.05;;;3.70;;
1585;SDS011;786;48.718;9.514;2024-02-26T08:02:52;4.38;;;3.72;;
1585;SDS011;786;48.718;9.514;2024-02-26T08:05:18;4.72;;;3.78;;
1585;SDS011;786;48.718;9.514;2024-02-26T08:07:45;3.85;;;3.35;;
1585;SDS011;786;48.718;9.514;2024-02-26T08:10:11;5.95;;;3.85;;
1585;SDS011;786;48.718;9.514;2024-02-26T08:12:37;5.43;;;3.40;;
1585;SDS011;786;48.718;9.514;2024-02-26T08:15:04;4.85;;;3.78;;
1585;SDS011;786;48.718;9.514;2024-02-26T08:17:31;4.20;;;3.47;;
1585;SDS011;786;48.718;9.514;2024-02-26T08:20:00;5.20;;;3.85;;
1585;SDS011;786;48.718;9.514;2024-02-26T08:22:27;4.22;;;3.83;;
1585;SDS011;786;48.718;9.514;2024-02-26T08:24:53;5.10;;;4.05;;
1585;SDS011;786;48.718;9.514;2024-02-26T08:27:20;4.10;;;3.42;;
1585;SDS011;786;48.718;9.514;2024-02-26T08:29:46;4.75;;;3.17;;
1585;SDS011;786;48.718;9.514;2024-02-26T08:32:12;4.60;;;4.10;;
1585;SDS011;786;48.718;9.514;2024-02-26T08:34:39;5.50;;;4.40;;
1585;SDS011;786;48.718;9.514;2024-02-26T08:37:07;5.40;;;4.90;;
1585;SDS011;786;48.718;9.514;2024-02-26T08:39:33;5.38;;;3.70;;
1585;SDS011;786;48.718;9.514;2024-02-26T08:41:59;5.03;;;4.40;;
1585;SDS011;786;48.718;9.514;2024-02-26T08:44:25;5.97;;;4.28;;
1585;SDS011;786;48.718;9.514;2024-02-26T08:46:52;7.10;;;5.43;;
1585;SDS011;786;48.718;9.514;2024-02-26T08:49:18;5.03;;;4.15;;
1585;SDS011;786;48.718;9.514;2024-02-26T08:51:44;4.47;;;3.63;;
1585;SDS011;786;48.718;9.514;2024-02-26T08:54:12;4.93;;;4.38;;
1585;SDS011;786;48.718;9.514;2024-02-26T08:56:38;5.47;;;4.03;;
1585;SDS011;786;48.718;9.514;2024-02-26T08:59:05;5.72;;;4.15;;
1585;SDS011;786;48.718;9.514;2024-02-26T09:01:30;5.38;;;3.85;;
1585;SDS011;786;48.718;9.514;2024-02-26T09:03:57;4.85;;;4.45;;
1585;SDS011;786;48.718;9.514;2024-02-26T09:06:24;5.45;;;4.25;;
1585;SDS011;786;48.718;9.514;2024-02-26T09:08:50;5.32;;;4.68;;
1585;SDS011;786;48.718;9.514;2024-02-26T09:11:18;6.28;;;4.78;;
1585;SDS011;786;48.718;9.514;2024-02-26T09:13:44;6.93;;;4.80;;
1585;SDS011;786;48.718;9.514;2024-02-26T09:16:11;6.75;;;5.57;;
1585;SDS011;786;48.718;9.514;2024-02-26T09:18:38;6.82;;;4.45;;
1585;SDS011;786;48.718;9.514;2024-02-26T09:21:04;6.43;;;5.28;;
1585;SDS011;786;48.718;9.514;2024-02-26T09:23:31;6.97;;;4.28;;
1585;SDS011;786;48.718;9.514;2024-02-26T09:25:57;5.30;;;4.80;;
1585;SDS011;786;48.718;9.514;2024-02-26T09:28:25;5.57;;;4.18;;
1585;SDS011;786;48.718;9.514;2024-02-26T09:30:51;5.35;;;4.72;;
1585;SDS011;786;48.718;9.514;2024-02-26T09:33:18;6.10;;;3.75;;
1585;SDS011;786;48.718;9.514;2024-02-26T09:35:44;6.85;;;4.25;;
1585;SDS011;786;48.718;9.514;2024-02-26T09:38:11;6.28;;;4.85;;
1585;SDS011;786;48.718;9.514;2024-02-26T09:40:38;5.90;;;3.70;;
1585;SDS011;786;48.718;9.514;2024-02-26T09:43:05;5.70;;;5.20;;
1585;SDS011;786;48.718;9.514;2024-02-26T09:45:34;5.30;;;3.50;;
1585;SDS011;786;48.718;9.514;2024-02-26T09:48:01;4.82;;;3.67;;
1585;SDS011;786;48.718;9.514;2024-02-26T09:50:28;4.50;;;3.38;;
1585;SDS011;786;48.718;9.514;2024-02-26T09:52:55;4.85;;;4.38;;
1585;SDS011;786;48.718;9.514;2024-02-26T09:55:24;5.43;;;3.75;;
1585;SDS011;786;48.718;9.514;2024-02-26T09:57:51;5.35;;;3.95;;
1585;SDS011;786;48.718;9.514;2024-02-26T10:00:18;6.35;;;4.72;;
1585;SDS011;786;48.718;9.514;2024-02-26T10:02:46;7.55;;;4.10;;
1585;SDS011;786;48.718;9.514;2024-02-26T10:05:14;4.50;;;3.53;;
1585;SDS011;786;48.718;9.514;2024-02-26T10:07:41;5.25;;;4.45;;
1585;SDS011;786;48.718;9.514;2024-02-26T10:10:08;5.40;;;3.70;;
1585;SDS011;786;48.718;9.514;2024-02-26T10:12:35;5.63;;;3.60;;
1585;SDS011;786;48.718;9.514;2024-02-26T10:15:01;4.32;;;3.92;;
1585;SDS011;786;48.718;9.514;2024-02-26T10:17:27;4.22;;;3.83;;
1585;SDS011;786;48.718;9.514;2024-02-26T10:19:55;5.85;;;4.88;;
1585;SDS011;786;48.718;9.514;2024-02-26T10:22:37;3.53;;;2.70;;
1585;SDS011;786;48.718;9.514;2024-02-26T10:25:03;4.35;;;3.80;;
1585;SDS011;786;48.718;9.514;2024-02-26T10:27:30;4.25;;;3.85;;
1585;SDS011;786;48.718;9.514;2024-02-26T10:29:57;4.78;;;4.30;;
1585;SDS011;786;48.718;9.514;2024-02-26T10:32:23;4.07;;;3.65;;
1585;SDS011;786;48.718;9.514;2024-02-26T10:34:50;3.50;;;3.20;;
1585;SDS011;786;48.718;9.514;2024-02-26T10:37:23;3.58;;;3.28;;
1585;SDS011;786;48.718;9.514;2024-02-26T10:39:50;3.67;;;3.38;;
1585;SDS011;786;48.718;9.514;2024-02-26T10:42:16;3.88;;;2.85;;
1585;SDS011;786;48.718;9.514;2024-02-26T10:44:44;3.25;;;2.95;;
1585;SDS011;786;48.718;9.514;2024-02-26T10:47:13;4.15;;;2.30;;
1585;SDS011;786;48.718;9.514;2024-02-26T10:54:41;2.97;;;2.58;;
1585;SDS011;786;48.718;9.514;2024-02-26T10:57:08;2.78;;;2.60;;
1585;SDS011;786;48.718;9.514;2024-02-26T10:59:35;2.42;;;2.20;;
1585;SDS011;786;48.718;9.514;2024-02-26T11:02:02;2.53;;;2.33;;
1585;SDS011;786;48.718;9.514;2024-02-26T11:04:29;2.42;;;2.15;;
1585;SDS011;786;48.718;9.514;2024-02-26T11:06:56;2.53;;;2.33;;
1585;SDS011;786;48.718;9.514;2024-02-26T11:09:24;3.63;;;2.50;;
1585;SDS011;786;48.718;9.514;2024-02-26T11:11:51;3.25;;;2.17;;
1585;SDS011;786;48.718;9.514;2024-02-26T11:14:19;2.30;;;1.90;;
1585;SDS011;786;48.718;9.514;2024-02-26T11:16:46;5.25;;;4.15;;
1585;SDS011;786;48.718;9.514;2024-02-26T11:19:13;3.15;;;2.85;;
1585;SDS011;786;48.718;9.514;2024-02-26T11:21:40;3.15;;;2.30;;
1585;SDS011;786;48.718;9.514;2024-02-26T11:24:08;2.92;;;2.72;;
1585;SDS011;786;48.718;9.514;2024-02-26T11:26:39;2.55;;;2.20;;
1585;SDS011;786;48.718;9.514;2024-02-26T11:29:10;3.08;;;2.80;;
1585;SDS011;786;48.718;9.514;2024-02-26T11:31:37;1.75;;;1.40;;
1585;SDS011;786;48.718;9.514;2024-02-26T11:34:04;2.42;;;2.22;;
1585;SDS011;786;48.718;9.514;2024-02-26T11:36:30;2.70;;;1.58;;
1585;SDS011;786;48.718;9.514;2024-02-26T11:38:57;2.13;;;2.03;;
1585;SDS011;786;48.718;9.514;2024-02-26T11:41:23;1.75;;;1.50;;
1585;SDS011;786;48.718;9.514;2024-02-26T11:43:51;1.73;;;1.42;;
1585;SDS011;786;48.718;9.514;2024-02-26T11:46:27;3.03;;;1.92;;
1585;SDS011;786;48.718;9.514;2024-02-26T11:48:56;2.95;;;2.00;;
1585;SDS011;786;48.718;9.514;2024-02-26T11:51:27;1.90;;;1.70;;
1585;SDS011;786;48.718;9.514;2024-02-26T11:53:54;2.45;;;1.77;;
1585;SDS011;786;48.718;9.514;2024-02-26T11:56:22;2.28;;;1.70;;
1585;SDS011;786;48.718;9.514;2024-02-26T11:58:56;2.20;;;1.90;;
1585;SDS011;786;48.718;9.514;2024-02-26T12:01:39;1.60;;;1.50;;
1585;SDS011;786;48.718;9.514;2024-02-26T12:04:12;2.40;;;2.10;;
1585;SDS011;786;48.718;9.514;2024-02-26T12:06:41;2.78;;;1.88;;
1585;SDS011;786;48.718;9.514;2024-02-26T12:09:08;3.28;;;3.08;;
1585;SDS011;786;48.718;9.514;2024-02-26T12:11:36;2.90;;;2.60;;
1585;SDS011;786;48.718;9.514;2024-02-26T12:14:04;2.90;;;2.55;;
1585;SDS011;786;48.718;9.514;2024-02-26T12:16:34;3.13;;;2.20;;
1585;SDS011;786;48.718;9.514;2024-02-26T12:19:01;3.35;;;2.50;;
1585;SDS011;786;48.718;9.514;2024-02-26T12:21:28;2.42;;;2.17;;
1585;SDS011;786;48.718;9.514;2024-02-26T12:23:54;2.28;;;1.92;;
1585;SDS011;786;48.718;9.514;2024-02-26T12:26:21;3.28;;;2.03;;
1585;SDS011;786;48.718;9.514;2024-02-26T12:28:47;2.85;;;2.53;;
1585;SDS011;786;48.718;9.514;2024-02-26T12:31:15;3.05;;;2.75;;
1585;SDS011;786;48.718;9.514;2024-02-26T12:33:41;2.08;;;1.88;;
1585;SDS011;786;48.718;9.514;2024-02-26T12:36:08;4.35;;;2.53;;
1585;SDS011;786;48.718;9.514;2024-02-26T12:38:34;2.58;;;2.25;;
1585;SDS011;786;48.718;9.514;2024-02-26T12:41:02;2.92;;;2.60;;
1585;SDS011;786;48.718;9.514;2024-02-26T12:43:29;2.20;;;2.00;;
1585;SDS011;786;48.718;9.514;2024-02-26T12:45:55;2.30;;;2.10;;
1585;SDS011;786;48.718;9.514;2024-02-26T12:48:23;2.47;;;2.28;;
1585;SDS011;786;48.718;9.514;2024-02-26T12:50:49;2.42;;;2.17;;
1585;SDS011;786;48.718;9.514;2024-02-26T12:53:16;2.17;;;1.98;;
1585;SDS011;786;48.718;9.514;2024-02-26T12:55:42;3.17;;;2.20;;
1585;SDS011;786;48.718;9.514;2024-02-26T12:58:09;2.65;;;2.30;;
1585;SDS011;786;48.718;9.514;2024-02-26T13:00:36;2.13;;;1.90;;
1585;SDS011;786;48.718;9.514;2024-02-26T13:03:02;3.20;;;2.47;;
1585;SDS011;786;48.718;9.514;2024-02-26T13:05:30;2.25;;;2.00;;
1585;SDS011;786;48.718;9.514;2024-02-26T13:07:57;1.88;;;1.77;;
1585;SDS011;786;48.718;9.514;2024-02-26T13:10:23;2.13;;;1.92;;
1585;SDS011;786;48.718;9.514;2024-02-26T13:12:50;2.53;;;2.33;;
1585;SDS011;786;48.718;9.514;2024-02-26T13:15:17;2.33;;;2.10;;
1585;SDS011;786;48.718;9.514;2024-02-26T13:17:44;3.00;;;2.15;;
1585;SDS011;786;48.718;9.514;2024-02-26T13:20:11;2.90;;;2.70;;
1585;SDS011;786;48.718;9.514;2024-02-26T13:22:39;4.28;;;2.55;;
1585;SDS011;786;48.718;9.514;2024-02-26T13:25:06;3.70;;;2.72;;
1585;SDS011;786;48.718;9.514;2024-02-26T13:27:33;3.65;;;2.78;;
1585;SDS011;786;48.718;9.514;2024-02-26T13:30:04;2.58;;;2.00;;
1585;SDS011;786;48.718;9.514;2024-02-26T13:32:32;2.65;;;2.17;;
1585;SDS011;786;48.718;9.514;2024-02-26T13:35:04;2.33;;;1.95;;
1585;SDS011;786;48.718;9.514;2024-02-26T13:37:31;2.50;;;2.28;;
1585;SDS011;786;48.718;9.514;2024-02-26T13:39:59;2.30;;;2.10;;
1585;SDS011;786;48.718;9.514;2024-02-26T13:42:27;2.85;;;2.47;;
1585;SDS011;786;48.718;9.514;2024-02-26T13:44:54;2.28;;;2.08;;
1585;SDS011;786;48.718;9.514;2024-02-26T13:47:20;2.33;;;2.13;;
1585;SDS011;786;48.718;9.514;2024-02-26T13:49:46;2.92;;;1.90;;
1585;SDS011;786;48.718;9.514;2024-02-26T13:52:13;2.53;;;2.33;;
1585;SDS011;786;48.718;9.514;2024-02-26T13:54:39;3.50;;;2.20;;
1585;SDS011;786;48.718;9.514;2024-02-26T13:57:07;3.63;;;2.83;;
1585;SDS011;786;48.718;9.514;2024-02-26T13:59:34;3.13;;;2.30;;
1585;SDS011;786;48.718;9.514;2024-02-26T14:02:01;2.38;;;2.08;;
1585;SDS011;786;48.718;9.514;2024-02-26T14:04:27;2.00;;;1.80;;
1585;SDS011;786;48.718;9.514;2024-02-26T14:06:54;2.83;;;1.85;;
1585;SDS011;786;48.718;9.514;2024-02-26T14:09:20;2.92;;;2.30;;
1585;SDS011;786;48.718;9.514;2024-02-26T14:11:46;2.83;;;2.20;;
1585;SDS011;786;48.718;9.514;2024-02-26T14:14:14;2.70;;;2.50;;
1585;SDS011;786;48.718;9.514;2024-02-26T14:16:40;2.88;;;2.30;;
1585;SDS011;786;48.718;9.514;2024-02-26T14:19:07;3.65;;;2.35;;
1585;SDS011;786;48.718;9.514;2024-02-26T14:21:33;2.13;;;1.92;;
1585;SDS011;786;48.718;9.514;2024-02-26T14:24:01;3.10;;;2.53;;
1585;SDS011;786;48.718;9.514;2024-02-26T14:26:27;3.15;;;2.20;;
1585;SDS011;786;48.718;9.514;2024-02-26T14:28:53;2.35;;;2.00;;
1585;SDS011;786;48.718;9.514;2024-02-26T14:31:22;3.78;;;2.20;;
1585;SDS011;786;48.718;9.514;2024-02-26T14:33:50;2.33;;;2.03;;
1585;SDS011;786;48.718;9.514;2024-02-26T14:36:18;2.78;;;2.58;;
1585;SDS011;786;48.718;9.514;2024-02-26T14:38:44;2.80;;;2.20;;
1585;SDS011;786;48.718;9.514;2024-02-26T14:41:10;2.78;;;2.53;;
1585;SDS011;786;48.718;9.514;2024-02-26T14:43:37;2.75;;;2.28;;
1585;SDS011;786;48.718;9.514;2024-02-26T14:46:03;2.30;;;2.08;;
1585;SDS011;786;48.718;9.514;2024-02-26T14:48:31;2.40;;;2.20;;
1585;SDS011;786;48.718;9.514;2024-02-26T14:50:57;2.60;;;2.25;;
1585;SDS011;786;48.718;9.514;2024-02-26T14:53:24;3.63;;;2.28;;
1585;SDS011;786;48.718;9.514;2024-02-26T14:55:50;3.30;;;2.25;;
1585;SDS011;786;48.718;9.514;2024-02-26T14:58:16;2.70;;;2.50;;
1585;SDS011;786;48.718;9.514;2024-02-26T15:00:43;5.95;;;2.45;;
1585;SDS011;786;48.718;9.514;2024-02-26T15:03:11;4.65;;;3.50;;
1585;SDS011;786;48.718;9.514;2024-02-26T15:05:39;2.40;;;2.20;;
1585;SDS011;786;48.718;9.514;2024-02-26T15:08:05;3.45;;;2.78;;
1585;SDS011;786;48.718;9.514;2024-02-26T15:10:35;2.90;;;2.00;;
1585;SDS011;786;48.718;9.514;2024-02-26T15:13:01;3.58;;;2.58;;
1585;SDS011;786;48.718;9.514;2024-02-26T15:15:29;2.40;;;1.85;;
1585;SDS011;786;48.718;9.514;2024-02-26T15:17:56;4.75;;;2.40;;
1585;SDS011;786;48.718;9.514;2024-02-26T15:20:22;2.92;;;2.17;;
1585;SDS011;786;48.718;9.514;2024-02-26T15:22:50;3.42;;;2.67;;
1585;SDS011;786;48.718;9.514;2024-02-26T15:25:16;3.72;;;3.33;;
1585;SDS011;786;48.718;9.514;2024-02-26T15:27:44;3.55;;;2.95;;
1585;SDS011;786;48.718;9.514;2024-02-26T15:30:11;3.75;;;3.10;;
1585;SDS011;786;48.718;9.514;2024-02-26T15:32:37;2.67;;;2.25;;
1585;SDS011;786;48.718;9.514;2024-02-26T15:35:04;3.28;;;2.53;;
1585;SDS011;786;48.718;9.514;2024-02-26T15:37:31;3.47;;;2.58;;
1585;SDS011;786;48.718;9.514;2024-02-26T15:40:00;3.92;;;2.75;;
1585;SDS011;786;48.718;9.514;2024-02-26T15:42:27;6.65;;;2.70;;
1585;SDS011;786;48.718;9.514;2024-02-26T15:44:53;3.63;;;2.60;;
1585;SDS011;786;48.718;9.514;2024-02-26T15:47:20;5.25;;;3.75;;
1585;SDS011;786;48.718;9.514;2024-02-26T15:49:46;4.50;;;3.08;;